Time;durP1;ratioP1;P1;durP2;ratioP2;P2;SDS_P1;SDS_P2;PMS_P1;PMS_P2;Temp;Humidity;BMP_temperature;BMP_pressure;BME280_temperature;BME280_humidity;BME280_pressure;Samples;Min_cycle;Max_cycle;Signal;HPM_P1;HPM_P2
2020/12/01 00:01:32;;;;;;;6.50;4.50;;;22.10;52.20;;;;;;5186591;28;20057;-69
2020/12/01 00:04:04;;;;;;;10.25;5.07;;;22.10;52.20;;;;;;5179262;28;20046;-69
2020/12/01 00:06:36;;;;;;;8.82;4.68;;;22.10;52.20;;;;;;5196086;28;20396;-69
2020/12/01 00:09:08;;;;;;;8.68;4.88;;;22.10;52.30;;;;;;5191307;28;20064;-69
2020/12/01 00:11:40;;;;;;;9.27;5.43;;;22.10;52.30;;;;;;5197782;28;20451;-69
2020/12/01 00:14:12;;;;;;;8.85;4.32;;;22.10;52.30;;;;;;5186123;28;20058;-69
2020/12/01 00:16:45;;;;;;;7.50;4.57;;;22.10;52.30;;;;;;5192802;28;20423;-69
2020/12/01 00:19:17;;;;;;;8.30;4.97;;;22.10;52.30;;;;;;5187598;28;20330;-69
2020/12/01 00:21:49;;;;;;;7.85;4.32;;;22.10;52.30;;;;;;5182070;28;20524;-70
2020/12/01 00:24:21;;;;;;;9.02;4.60;;;22.10;52.30;;;;;;5187727;28;20041;-70
2020/12/01 00:26:53;;;;;;;7.63;4.40;;;22.10;52.30;;;;;;5192201;28;20056;-70
2020/12/01 00:29:25;;;;;;;7.63;4.82;;;22.10;52.30;;;;;;5194237;28;20076;-68
2020/12/01 00:31:57;;;;;;;10.07;4.95;;;22.10;52.30;;;;;;5184620;28;20052;-72
2020/12/01 00:34:29;;;;;;;16.30;5.20;;;22.10;52.30;;;;;;5188703;28;20053;-71
2020/12/01 00:37:03;;;;;;;5.03;4.00;;;22.10;52.40;;;;;;5184976;28;20053;-71
2020/12/01 00:39:35;;;;;;;8.27;4.20;;;22.10;52.40;;;;;;5190137;28;20050;-70
2020/12/01 00:42:07;;;;;;;10.35;4.30;;;22.10;52.30;;;;;;5188263;28;20378;-71
2020/12/01 00:44:39;;;;;;;13.38;5.47;;;22.10;52.40;;;;;;5178569;28;20052;-72
2020/12/01 00:47:11;;;;;;;13.48;4.57;;;22.10;52.40;;;;;;5192743;28;20621;-70
2020/12/01 00:49:43;;;;;;;7.45;4.35;;;22.10;52.40;;;;;;5195088;28;20049;-70
2020/12/01 00:52:16;;;;;;;12.15;4.85;;;22.10;52.40;;;;;;5187336;28;20057;-71
2020/12/01 00:54:48;;;;;;;10.05;4.45;;;22.10;53.00;;;;;;5182305;28;20511;-71
2020/12/01 00:57:20;;;;;;;12.23;4.80;;;22.10;52.40;;;;;;5196990;28;20527;-71
2020/12/01 00:59:52;;;;;;;9.98;5.00;;;22.10;52.40;;;;;;5191887;28;20046;-71
2020/12/01 01:02:31;;;;;;;11.23;5.20;;;22.10;52.40;;;;;;5183030;28;20045;-71
2020/12/01 01:05:04;;;;;;;12.02;4.60;;;22.10;52.30;;;;;;5194938;28;20057;-72
2020/12/01 01:07:36;;;;;;;13.43;4.95;;;22.10;52.40;;;;;;5192110;28;20053;-71
2020/12/01 01:10:14;;;;;;;9.52;4.65;;;22.10;52.30;;;;;;5178242;28;20049;-71
2020/12/01 01:12:46;;;;;;;13.30;5.05;;;22.10;52.30;;;;;;5177731;28;20069;-71
2020/12/01 01:15:18;;;;;;;8.35;4.80;;;22.10;52.30;;;;;;5192134;28;20054;-71
2020/12/01 01:17:50;;;;;;;7.47;4.13;;;22.10;52.30;;;;;;5184086;28;20050;-71
2020/12/01 01:20:22;;;;;;;8.15;4.65;;;22.10;52.30;;;;;;5187827;28;20049;-71
2020/12/01 01:22:55;;;;;;;7.85;4.43;;;22.10;52.30;;;;;;5190952;28;20049;-71
2020/12/01 01:25:27;;;;;;;7.97;4.63;;;22.10;52.30;;;;;;5190647;28;20057;-71
2020/12/01 01:27:59;;;;;;;8.63;4.40;;;22.10;52.20;;;;;;5179849;28;20046;-71
2020/12/01 01:30:32;;;;;;;5.72;4.40;;;22.10;52.30;;;;;;5185403;28;20519;-72
2020/12/01 01:33:04;;;;;;;7.78;4.20;;;22.00;52.30;;;;;;5188765;28;20038;-70
2020/12/01 01:35:37;;;;;;;7.03;4.65;;;22.00;52.20;;;;;;5197010;28;20045;-70
2020/12/01 01:38:10;;;;;;;;;;;22.10;52.30;;;;;;5192653;28;20057;-70
2020/12/01 01:40:42;;;;;;;9.10;4.28;;;22.00;52.30;;;;;;5188622;28;19930;-70
2020/12/01 01:43:14;;;;;;;10.75;5.47;;;22.00;52.30;;;;;;5199057;28;20049;-70
2020/12/01 01:45:48;;;;;;;12.27;4.40;;;22.00;52.30;;;;;;5198056;28;20056;-70
2020/12/01 01:48:27;;;;;;;8.52;4.57;;;22.10;52.50;;;;;;5193885;28;20049;-70
2020/12/01 01:51:25;;;;;;;6.88;4.18;;;22.00;52.40;;;;;;5178713;28;20049;-70
2020/12/01 01:53:57;;;;;;;14.90;4.40;;;22.00;52.30;;;;;;5178513;28;20065;-70
2020/12/01 01:56:35;;;;;;;8.98;4.43;;;22.00;52.30;;;;;;5189215;28;20060;-72
2020/12/01 01:59:07;;;;;;;14.60;4.50;;;22.00;52.30;;;;;;5181347;28;20042;-72
2020/12/01 02:01:40;;;;;;;10.30;4.67;;;22.00;52.40;;;;;;5195397;28;20041;-71
2020/12/01 02:04:14;;;;;;;6.45;4.20;;;22.00;52.30;;;;;;5188089;28;20300;-69
2020/12/01 02:06:49;;;;;;;15.10;4.20;;;22.00;52.40;;;;;;5189653;28;20041;-69
2020/12/01 02:09:28;;;;;;;14.18;4.28;;;22.00;52.50;;;;;;5204529;28;20038;-70
2020/12/01 02:12:03;;;;;;;8.50;4.18;;;22.00;52.40;;;;;;5186340;28;20053;-70
2020/12/01 02:14:42;;;;;;;16.27;4.30;;;22.00;52.50;;;;;;5179623;28;20064;-69
2020/12/01 02:17:29;;;;;;;6.75;3.88;;;22.10;52.50;;;;;;5211366;28;20049;-71
2020/12/01 02:20:14;;;;;;;15.13;4.90;;;22.10;52.50;;;;;;5187519;28;20050;-71
2020/12/01 02:22:49;;;;;;;14.05;4.38;;;22.00;52.40;;;;;;5182454;28;20054;-71
2020/12/01 02:25:22;;;;;;;17.73;6.32;;;22.00;52.60;;;;;;5199124;28;20630;-71
2020/12/01 02:27:56;;;;;;;15.60;5.10;;;22.00;52.50;;;;;;5199941;28;20053;-71
2020/12/01 02:30:28;;;;;;;9.77;4.50;;;22.00;52.40;;;;;;5191714;28;20050;-71
2020/12/01 02:33:00;;;;;;;11.85;4.72;;;22.00;52.40;;;;;;5189370;28;20057;-71
2020/12/01 02:35:32;;;;;;;11.25;4.35;;;22.00;52.40;;;;;;5197156;28;20057;-71
2020/12/01 02:38:04;;;;;;;10.85;4.22;;;22.00;52.30;;;;;;5193837;28;20050;-71
2020/12/01 02:40:36;;;;;;;10.65;4.78;;;22.00;52.40;;;;;;5182605;28;20075;-71
2020/12/01 02:43:11;;;;;;;9.18;3.85;;;22.00;52.30;;;;;;5189231;28;20049;-71
2020/12/01 02:45:42;;;;;;;10.20;4.47;;;22.00;52.30;;;;;;5189695;28;20042;-71
2020/12/01 02:48:14;;;;;;;10.13;4.35;;;22.00;52.30;;;;;;5187722;28;20045;-71
2020/12/01 02:50:46;;;;;;;13.13;5.30;;;22.00;52.20;;;;;;5188422;28;20054;-71
2020/12/01 02:53:18;;;;;;;7.20;3.72;;;22.00;52.20;;;;;;5181620;28;20402;-71
2020/12/01 02:55:50;;;;;;;6.22;3.72;;;22.00;52.20;;;;;;5181808;28;20421;-71
2020/12/01 02:58:22;;;;;;;7.47;4.20;;;22.00;52.20;;;;;;5192383;28;20056;-71
2020/12/01 03:00:54;;;;;;;8.18;3.90;;;22.00;52.30;;;;;;5182511;28;20081;-71
2020/12/01 03:03:26;;;;;;;7.97;3.42;;;22.00;52.30;;;;;;5186004;28;20038;-69
2020/12/01 03:05:59;;;;;;;6.93;4.00;;;22.00;52.30;;;;;;5196773;28;20041;-69
2020/12/01 03:08:31;;;;;;;6.95;4.13;;;22.00;52.30;;;;;;5201019;28;20064;-69
2020/12/01 03:13:54;;;;;;;6.95;3.80;;;22.00;52.40;;;;;;5171851;28;20429;-71
2020/12/01 03:16:26;;;;;;;8.15;4.60;;;22.00;52.40;;;;;;5179834;28;20061;-71
2020/12/01 03:18:58;;;;;;;13.10;4.65;;;22.00;52.40;;;;;;5180349;28;20052;-71
2020/12/01 03:21:30;;;;;;;8.80;4.25;;;22.00;52.50;;;;;;5181153;28;20038;-70
2020/12/01 03:24:02;;;;;;;12.32;3.78;;;22.00;52.40;;;;;;5177349;28;20122;-70
2020/12/01 03:26:34;;;;;;;8.98;4.35;;;22.00;52.60;;;;;;5178649;28;20046;-69
2020/12/01 03:29:06;;;;;;;12.65;4.22;;;22.00;52.70;;;;;;5180550;28;20041;-70
2020/12/01 03:31:38;;;;;;;10.48;4.35;;;22.00;52.60;;;;;;5180197;28;20053;-71
2020/12/01 03:34:11;;;;;;;15.80;5.50;;;22.00;52.70;;;;;;5178395;28;20050;-72
2020/12/01 03:36:45;;;;;;;8.07;4.47;;;22.00;52.80;;;;;;5178096;28;20050;-71
2020/12/01 03:39:17;;;;;;;9.85;4.90;;;22.00;52.80;;;;;;5174593;28;20327;-71
2020/12/01 03:41:49;;;;;;;13.30;3.67;;;22.00;52.60;;;;;;5186014;28;20070;-72
2020/12/01 03:44:21;;;;;;;9.50;4.35;;;22.00;52.50;;;;;;5177519;28;20057;-72
2020/12/01 03:46:57;;;;;;;6.10;3.42;;;22.00;52.50;;;;;;5178841;28;20593;-71
2020/12/01 03:49:28;;;;;;;;;;;22.00;52.50;;;;;;5180211;28;20068;-72
2020/12/01 03:52:00;;;;;;;6.22;3.88;;;22.00;52.50;;;;;;5176267;28;19932;-70
2020/12/01 03:54:32;;;;;;;8.98;4.45;;;22.00;52.50;;;;;;5179227;28;20358;-70
2020/12/01 03:57:04;;;;;;;7.13;4.10;;;22.00;52.60;;;;;;5180038;28;20050;-70
2020/12/01 03:59:36;;;;;;;10.88;4.13;;;22.00;52.60;;;;;;5178526;28;20065;-70
2020/12/01 04:02:08;;;;;;;7.93;4.20;;;22.00;53.30;;;;;;5180507;28;20050;-70
2020/12/01 04:04:40;;;;;;;8.10;4.22;;;22.00;52.60;;;;;;5183511;28;20061;-70
2020/12/01 04:07:12;;;;;;;6.72;4.07;;;22.00;52.70;;;;;;5178271;28;20447;-70
2020/12/01 04:09:44;;;;;;;8.70;4.10;;;22.00;52.60;;;;;;5179530;28;20057;-70
2020/12/01 04:12:16;;;;;;;5.97;3.63;;;22.00;52.60;;;;;;5178126;28;20221;-70
2020/12/01 04:14:48;;;;;;;5.97;3.33;;;22.00;52.70;;;;;;5177192;28;20041;-70
2020/12/01 04:17:20;;;;;;;8.90;3.88;;;22.00;52.70;;;;;;5179132;28;20054;-70
2020/12/01 04:19:52;;;;;;;6.75;3.60;;;22.00;52.70;;;;;;5176766;28;20501;-70
2020/12/01 04:22:24;;;;;;;11.55;4.55;;;22.00;52.60;;;;;;5178613;28;20042;-70
2020/12/01 04:24:56;;;;;;;7.82;3.90;;;22.00;52.70;;;;;;5178392;28;20046;-70
2020/12/01 04:27:28;;;;;;;6.75;4.10;;;22.00;52.70;;;;;;5176074;28;20050;-70
2020/12/01 04:30:01;;;;;;;10.25;4.55;;;22.00;52.50;;;;;;5178853;28;20080;-70
2020/12/01 04:32:33;;;;;;;10.40;4.15;;;22.00;52.70;;;;;;5176614;28;20559;-71
2020/12/01 04:35:06;;;;;;;6.78;3.95;;;22.00;52.70;;;;;;5179582;28;20049;-72
2020/12/01 04:37:38;;;;;;;7.25;3.47;;;22.00;52.70;;;;;;5182290;28;20046;-71
2020/12/01 04:40:15;;;;;;;7.72;4.30;;;22.00;52.70;;;;;;5179616;28;20531;-69
2020/12/01 04:42:54;;;;;;;9.30;4.35;;;22.00;52.50;;;;;;5192455;28;20056;-70
2020/12/01 04:45:26;;;;;;;9.25;4.43;;;22.00;52.60;;;;;;5177942;28;20354;-72
2020/12/01 04:48:04;;;;;;;7.60;3.78;;;22.00;52.60;;;;;;5179563;28;20539;-73
2020/12/01 04:50:47;;;;;;;17.83;4.53;;;22.00;52.50;;;;;;5178164;28;20484;-71
2020/12/01 04:53:44;;;;;;;17.25;4.03;;;22.00;52.70;;;;;;5194396;28;20061;-70
2020/12/01 04:56:31;;;;;;;6.43;3.85;;;22.00;52.70;;;;;;5174786;28;20053;-70
2020/12/01 04:59:28;;;;;;;21.15;4.32;;;22.00;52.50;;;;;;5179188;28;20058;-70
2020/12/01 05:02:26;;;;;;;18.48;4.70;;;21.90;52.50;;;;;;5171772;28;20053;-70
2020/12/01 05:05:20;;;;;;;12.23;4.43;;;22.00;52.60;;;;;;5169305;28;20056;-72
2020/12/01 05:08:22;;;;;;;9.65;4.40;;;21.90;52.60;;;;;;5175927;28;20065;-72
2020/12/01 05:10:55;;;;;;;11.52;3.88;;;21.90;52.60;;;;;;5157566;28;20053;-72
2020/12/01 05:13:31;;;;;;;8.93;4.40;;;21.90;52.60;;;;;;5165141;28;20065;-72
2020/12/01 05:16:26;;;;;;;8.75;4.25;;;21.90;52.70;;;;;;5158603;28;20477;-72
2020/12/01 05:18:58;;;;;;;10.18;3.65;;;21.90;52.60;;;;;;5165052;28;20054;-70
2020/12/01 05:21:30;;;;;;;9.95;3.45;;;21.90;52.70;;;;;;5163778;28;20057;-69
2020/12/01 05:24:02;;;;;;;10.60;3.78;;;21.90;52.80;;;;;;5165600;28;20034;-70
2020/12/01 05:26:38;;;;;;;12.25;4.00;;;21.90;52.80;;;;;;5159807;28;20049;-70
2020/12/01 05:29:23;;;;;;;10.73;4.10;;;22.00;53.00;;;;;;5160747;28;20042;-69
2020/12/01 05:31:55;;;;;;;10.18;4.10;;;22.00;53.00;;;;;;5163434;28;20046;-69
2020/12/01 05:34:28;;;;;;;10.35;3.75;;;22.00;53.00;;;;;;5166159;28;20050;-69
2020/12/01 05:37:04;;;;;;;12.55;4.03;;;21.90;52.80;;;;;;5166109;28;20053;-68
2020/12/01 05:40:30;;;;;;;7.07;3.75;;;22.00;52.90;;;;;;5169778;28;20404;-68
2020/12/01 05:43:02;;;;;;;9.77;4.18;;;22.00;52.90;;;;;;5174029;28;20689;-69
2020/12/01 05:45:37;;;;;;;8.60;3.42;;;21.90;52.80;;;;;;5170805;28;20408;-69
2020/12/01 05:48:12;;;;;;;6.82;4.20;;;22.00;53.00;;;;;;5167287;28;20050;-70
2020/12/01 05:50:54;;;;;;;7.28;4.00;;;21.90;52.90;;;;;;5170689;28;20535;-70
2020/12/01 05:53:26;;;;;;;11.30;3.70;;;22.00;53.00;;;;;;5161903;28;20053;-69
2020/12/01 05:56:24;;;;;;;23.27;5.47;;;22.00;53.10;;;;;;5160852;28;20061;-69
2020/12/01 05:59:01;;;;;;;39.58;6.15;;;22.00;53.00;;;;;;5177307;28;20084;-67
2020/12/01 06:01:42;;;;;;;35.80;6.40;;;22.00;53.20;;;;;;5161266;28;20065;-68
2020/12/01 06:04:17;;;;;;;36.08;6.85;;;22.00;53.80;;;;;;5161017;28;20037;-68
2020/12/01 06:07:26;;;;;;;30.80;6.65;;;22.00;53.20;;;;;;5185526;28;20050;-68
2020/12/01 06:10:33;;;;;;;26.30;5.28;;;22.00;53.20;;;;;;5174845;28;20081;-69
2020/12/01 06:13:23;;;;;;;33.15;5.47;;;22.00;52.90;;;;;;5153207;28;21033;-68
2020/12/01 06:16:07;;;;;;;26.77;4.90;;;22.00;53.50;;;;;;5153566;28;20102;-67
2020/12/01 06:19:01;;;;;;;14.60;4.60;;;22.00;52.80;;;;;;5158682;28;20046;-66
2020/12/01 06:22:07;;;;;;;17.20;4.78;;;22.00;52.80;;;;;;5146100;28;20552;-67
2020/12/01 06:25:06;;;;;;;18.60;5.03;;;22.00;52.80;;;;;;5144735;28;20049;-67
2020/12/01 06:27:57;;;;;;;17.83;4.63;;;22.00;52.80;;;;;;5149244;28;20050;-68
2020/12/01 06:31:00;;;;;;;14.55;4.38;;;22.00;52.80;;;;;;5156044;28;20057;-67
2020/12/01 06:34:13;;;;;;;13.15;4.57;;;22.00;52.70;;;;;;5152529;28;20585;-67
2020/12/01 06:36:48;;;;;;;15.13;4.75;;;22.00;52.70;;;;;;5177768;28;20087;-68
2020/12/01 06:39:46;;;;;;;15.80;4.03;;;22.00;53.40;;;;;;5162616;28;20046;-67
2020/12/01 06:42:51;;;;;;;13.55;4.22;;;22.00;52.80;;;;;;5168308;28;20073;-68
2020/12/01 06:45:36;;;;;;;12.77;4.60;;;22.00;52.80;;;;;;5175714;28;20371;-68
2020/12/01 06:48:26;;;;;;;9.27;4.47;;;22.00;52.70;;;;;;5173883;28;20528;-68
2020/12/01 06:51:00;;;;;;;11.15;4.78;;;22.00;52.60;;;;;;5156676;28;20049;-76
2020/12/01 06:53:35;;;;;;;16.08;5.35;;;21.90;52.50;;;;;;5176724;28;20053;-68
2020/12/01 06:56:07;;;;;;;9.95;4.35;;;22.00;52.50;;;;;;5163133;28;20054;-67
2020/12/01 06:58:41;;;;;;;12.32;5.30;;;21.90;52.30;;;;;;5165134;28;20496;-67
2020/12/01 07:01:31;;;;;;;21.67;5.93;;;22.00;52.30;;;;;;5169607;28;20061;-68
2020/12/01 07:04:24;;;;;;;16.38;5.05;;;22.00;52.30;;;;;;5157719;28;20045;-67
2020/12/01 07:06:59;;;;;;;12.20;5.22;;;22.00;52.20;;;;;;5166644;28;20495;-67
2020/12/01 07:09:45;;;;;;;12.20;6.05;;;22.00;52.30;;;;;;5161181;28;20041;-67
2020/12/01 07:12:37;;;;;;;10.90;5.45;;;22.00;52.20;;;;;;5155249;28;20412;-67
2020/12/01 07:15:17;;;;;;;12.32;5.05;;;22.00;52.20;;;;;;5167919;28;20054;-67
2020/12/01 07:17:57;;;;;;;18.50;5.60;;;22.00;52.20;;;;;;5177468;28;20049;-67
2020/12/01 07:20:34;;;;;;;12.90;4.53;;;22.00;52.10;;;;;;5190914;28;20050;-67
2020/12/01 07:23:25;;;;;;;12.60;5.57;;;22.00;52.10;;;;;;5174757;28;20060;-67
2020/12/01 07:26:18;;;;;;;12.93;5.25;;;22.00;52.10;;;;;;5171815;28;20060;-67
2020/12/01 07:29:09;;;;;;;11.38;4.88;;;22.00;52.10;;;;;;5169029;28;20069;-67
2020/12/01 07:31:41;;;;;;;9.70;4.97;;;21.90;52.00;;;;;;5176208;28;20058;-67
2020/12/01 07:34:21;;;;;;;12.98;5.25;;;21.90;52.00;;;;;;5188062;28;20548;-67
2020/12/01 07:37:19;;;;;;;12.40;5.55;;;21.90;52.00;;;;;;5176808;28;20057;-66
2020/12/01 07:40:08;;;;;;;11.35;4.70;;;21.90;51.90;;;;;;5174196;28;20064;-67
2020/12/01 07:42:40;;;;;;;14.73;5.57;;;21.90;51.90;;;;;;5171863;28;20895;-67
2020/12/01 07:45:17;;;;;;;10.98;4.68;;;21.90;51.90;;;;;;5172420;28;20057;-67
2020/12/01 07:47:55;;;;;;;12.02;4.60;;;21.90;51.80;;;;;;5171701;28;20053;-67
2020/12/01 07:50:30;;;;;;;12.60;4.53;;;22.00;51.90;;;;;;5172595;28;20046;-67
2020/12/01 07:53:06;;;;;;;10.43;5.13;;;21.90;51.90;;;;;;5175280;28;20053;-67
2020/12/01 07:55:48;;;;;;;8.88;4.75;;;21.90;51.90;;;;;;5179154;28;20500;-67
2020/12/01 07:58:25;;;;;;;10.45;5.50;;;21.90;51.80;;;;;;5175468;28;20055;-67
2020/12/01 08:01:05;;;;;;;10.88;5.00;;;21.90;51.80;;;;;;5169391;28;20056;-67
2020/12/01 08:03:38;;;;;;;14.10;4.75;;;21.90;51.80;;;;;;5176702;28;20049;-67
2020/12/01 08:06:16;;;;;;;17.83;4.97;;;21.90;51.80;;;;;;5174043;28;20045;-67
2020/12/01 08:08:48;;;;;;;10.27;4.53;;;22.00;52.50;;;;;;5176105;28;20061;-67
2020/12/01 08:11:22;;;;;;;12.23;4.72;;;21.90;51.80;;;;;;5173412;28;20069;-67
2020/12/01 08:13:54;;;;;;;13.50;4.53;;;21.90;51.80;;;;;;5165087;28;20050;-67
2020/12/01 08:16:28;;;;;;;9.77;4.10;;;21.90;51.70;;;;;;5146941;28;20065;-67
2020/12/01 08:19:01;;;;;;;11.65;4.40;;;21.90;51.70;;;;;;5157759;28;20047;-67
2020/12/01 08:21:38;;;;;;;13.52;4.95;;;21.90;51.80;;;;;;5166206;28;20046;-67
2020/12/01 08:24:22;;;;;;;8.38;3.80;;;21.90;51.70;;;;;;5156669;28;20477;-67
2020/12/01 08:27:22;;;;;;;12.00;5.38;;;21.90;51.60;;;;;;5172810;28;20504;-67
2020/12/01 08:29:56;;;;;;;10.13;4.55;;;21.90;51.60;;;;;;5152500;28;20058;-67
2020/12/01 08:32:41;;;;;;;13.68;4.15;;;21.90;51.60;;;;;;5170447;28;20046;-67
2020/12/01 08:35:21;;;;;;;8.93;4.15;;;21.90;51.60;;;;;;5152890;28;20066;-67
2020/12/01 08:38:24;;;;;;;9.80;3.90;;;21.90;51.60;;;;;;5153059;28;20038;-67
2020/12/01 08:41:13;;;;;;;11.68;4.75;;;21.90;51.60;;;;;;5167731;28;20308;-67
2020/12/01 08:43:49;;;;;;;6.93;4.45;;;21.90;51.60;;;;;;5145457;28;20576;-68
2020/12/01 08:46:53;;;;;;;7.72;3.88;;;21.90;51.60;;;;;;5162126;28;20053;-66
2020/12/01 08:49:41;;;;;;;9.23;4.25;;;21.90;51.60;;;;;;5151842;28;20114;-67
2020/12/01 08:52:36;;;;;;;7.07;3.97;;;21.90;51.60;;;;;;5146739;28;20043;-66
2020/12/01 08:55:25;;;;;;;6.80;3.90;;;21.90;51.60;;;;;;5146748;28;20061;-67
2020/12/01 08:58:22;;;;;;;9.40;4.45;;;21.90;51.70;;;;;;5142446;28;20042;-67
2020/12/01 09:01:07;;;;;;;7.18;4.07;;;21.90;51.60;;;;;;5150020;28;20046;-67
2020/12/01 09:03:53;;;;;;;8.48;4.43;;;21.90;51.70;;;;;;5149245;28;20061;-67
2020/12/01 09:06:30;;;;;;;8.32;3.97;;;21.90;51.60;;;;;;5156322;28;20050;-66
2020/12/01 09:09:17;;;;;;;6.80;3.72;;;21.90;51.60;;;;;;5150388;28;20046;-66
2020/12/01 09:12:10;;;;;;;7.35;3.80;;;21.90;51.60;;;;;;5150922;28;20057;-66
2020/12/01 09:17:45;;;;;;;7.93;3.58;;;21.90;51.60;;;;;;5176317;28;20061;-67
2020/12/01 09:23:23;;;;;;;6.15;3.42;;;21.90;51.60;;;;;;5172997;28;20046;-67
2020/12/01 09:25:55;;;;;;;7.35;3.72;;;21.90;51.60;;;;;;5179114;28;20223;-67
2020/12/01 09:28:30;;;;;;;8.38;3.65;;;21.90;51.70;;;;;;5172056;28;20042;-67
2020/12/01 09:31:04;;;;;;;10.60;3.95;;;21.90;51.70;;;;;;5172060;28;20056;-66
2020/12/01 09:33:36;;;;;;;7.30;3.50;;;21.90;51.70;;;;;;5178002;28;20049;-66
2020/12/01 09:36:14;;;;;;;7.28;3.80;;;21.90;51.80;;;;;;5174305;28;20432;-67
2020/12/01 09:38:46;;;;;;;5.50;3.47;;;21.90;51.80;;;;;;5175031;28;20046;-67
2020/12/01 09:41:21;;;;;;;9.35;4.05;;;21.90;51.80;;;;;;5165596;28;20394;-67
2020/12/01 09:44:05;;;;;;;7.90;3.70;;;21.90;51.80;;;;;;5181332;28;20057;-67
2020/12/01 09:46:43;;;;;;;8.25;3.85;;;21.90;51.80;;;;;;5170309;28;20057;-77
2020/12/01 09:49:15;;;;;;;6.45;3.88;;;21.90;51.80;;;;;;5167526;28;20034;-67
2020/12/01 09:51:57;;;;;;;10.05;4.30;;;21.90;52.00;;;;;;5167479;28;20038;-67
2020/12/01 09:54:44;;;;;;;8.73;3.83;;;21.90;51.90;;;;;;5174173;28;20056;-67
2020/12/01 09:57:38;;;;;;;9.38;4.22;;;21.90;51.90;;;;;;5176624;28;20076;-67
2020/12/01 10:08:15;;;;;;;8.85;3.90;;;21.90;51.80;;;;;;5169919;28;20053;-68
2020/12/01 10:17:10;;;;;;;7.90;3.67;;;21.90;51.70;;;;;;5175725;28;20180;-66
2020/12/01 10:35:56;;;;;;;8.48;3.65;;;21.90;51.80;;;;;;5179453;28;20065;-67
2020/12/01 10:38:29;;;;;;;11.15;3.60;;;21.90;51.80;;;;;;5175933;28;20062;-67
2020/12/01 10:41:01;;;;;;;10.73;3.70;;;21.90;51.80;;;;;;5160644;28;20050;-67
2020/12/01 10:43:33;;;;;;;6.30;3.65;;;21.90;51.80;;;;;;5172673;28;20046;-67
2020/12/01 10:46:08;;;;;;;9.43;3.75;;;21.90;51.80;;;;;;5177971;28;20085;-68
2020/12/01 10:48:40;;;;;;;5.15;2.97;;;21.90;51.80;;;;;;5161565;28;20058;-67
2020/12/01 10:51:12;;;;;;;8.05;3.90;;;21.90;51.90;;;;;;5172429;28;20412;-68
2020/12/01 10:53:44;;;;;;;11.13;3.58;;;21.90;51.80;;;;;;5180634;28;20049;-67
2020/12/01 10:56:17;;;;;;;9.27;4.35;;;21.90;51.90;;;;;;5164181;28;20050;-68
2020/12/01 10:58:49;;;;;;;9.10;3.67;;;21.90;51.90;;;;;;5175919;28;20038;-66
2020/12/01 11:01:21;;;;;;;6.22;3.60;;;21.90;51.80;;;;;;5169562;28;20772;-66
2020/12/01 11:03:54;;;;;;;11.20;3.97;;;21.90;51.90;;;;;;5161796;28;20050;-67
2020/12/01 11:06:26;;;;;;;8.65;3.25;;;22.00;52.00;;;;;;5175048;28;20050;-66
2020/12/01 11:08:58;;;;;;;9.27;3.70;;;22.00;51.90;;;;;;5167721;28;20045;-66
2020/12/01 11:11:30;;;;;;;11.63;3.75;;;22.00;51.90;;;;;;5168464;28;20045;-68
2020/12/01 11:14:03;;;;;;;7.05;3.70;;;22.00;51.90;;;;;;5166105;28;20165;-67
2020/12/01 11:16:40;;;;;;;8.93;3.60;;;22.00;51.80;;;;;;5175950;28;20481;-67
2020/12/01 11:19:12;;;;;;;9.40;3.83;;;22.00;51.80;;;;;;5149958;28;20050;-66
2020/12/01 11:21:44;;;;;;;9.55;3.55;;;22.00;51.80;;;;;;5170604;28;20398;-66
2020/12/01 11:24:16;;;;;;;8.90;3.40;;;22.00;51.80;;;;;;5162445;28;20520;-67
2020/12/01 11:26:48;;;;;;;6.60;3.60;;;22.00;51.80;;;;;;5161729;28;21485;-67
2020/12/01 11:29:20;;;;;;;6.22;3.28;;;22.00;51.90;;;;;;5178806;28;20420;-67
2020/12/01 11:31:52;;;;;;;7.65;3.28;;;22.00;51.90;;;;;;5172907;28;20061;-66
2020/12/01 11:34:24;;;;;;;10.35;3.92;;;22.00;52.00;;;;;;5179125;28;20408;-67
2020/12/01 11:36:56;;;;;;;7.97;3.38;;;22.00;52.10;;;;;;5175853;28;20072;-67
2020/12/01 11:39:28;;;;;;;7.82;3.85;;;22.00;52.10;;;;;;5177855;28;20046;-66
2020/12/01 11:42:01;;;;;;;8.90;3.80;;;22.00;52.10;;;;;;5157320;28;20377;-67
2020/12/01 11:44:33;;;;;;;8.70;3.40;;;22.00;52.20;;;;;;5167865;28;20050;-67
2020/12/01 11:47:05;;;;;;;9.73;4.25;;;22.00;52.20;;;;;;5169782;28;20061;-67
2020/12/01 11:49:37;;;;;;;8.57;3.92;;;22.00;52.20;;;;;;5165373;28;20740;-67
2020/12/01 11:52:10;;;;;;;13.77;4.20;;;22.00;52.20;;;;;;5161842;28;20708;-67
2020/12/01 11:54:42;;;;;;;8.55;3.25;;;22.00;52.30;;;;;;5168004;28;20075;-67
2020/12/01 11:57:14;;;;;;;8.90;3.85;;;22.00;52.30;;;;;;5171775;28;20049;-67
2020/12/01 11:59:46;;;;;;;10.05;4.32;;;22.00;53.00;;;;;;5158216;28;20046;-66
2020/12/01 12:02:18;;;;;;;9.52;3.83;;;22.00;52.40;;;;;;5169493;28;20205;-66
2020/12/01 12:04:57;;;;;;;10.20;4.13;;;22.00;52.40;;;;;;5185262;28;20054;-66
2020/12/01 12:07:29;;;;;;;6.88;4.45;;;22.00;52.30;;;;;;5169458;28;20053;-66
2020/12/01 12:10:01;;;;;;;11.30;4.05;;;22.00;52.30;;;;;;5168381;28;20057;-66
2020/12/01 12:12:33;;;;;;;8.23;3.92;;;22.00;52.30;;;;;;5165008;28;20617;-66
2020/12/01 12:15:05;;;;;;;5.68;3.25;;;22.00;52.30;;;;;;5171691;28;20060;-66
2020/12/01 12:17:38;;;;;;;8.85;4.03;;;22.00;52.30;;;;;;5172102;28;20448;-66
2020/12/01 12:20:10;;;;;;;5.75;3.50;;;22.00;52.20;;;;;;5155754;28;20060;-67
2020/12/01 12:22:42;;;;;;;9.68;3.83;;;22.00;52.20;;;;;;5169191;28;20046;-67
2020/12/01 12:25:14;;;;;;;7.38;3.42;;;22.00;52.20;;;;;;5165777;28;20045;-67
2020/12/01 12:27:46;;;;;;;8.23;3.92;;;22.00;52.30;;;;;;5165735;28;20073;-67
2020/12/01 12:30:18;;;;;;;8.77;3.90;;;22.00;52.30;;;;;;5160372;28;20416;-67
2020/12/01 12:32:50;;;;;;;6.80;3.60;;;22.10;52.40;;;;;;5161594;28;20048;-67
2020/12/01 12:35:22;;;;;;;7.28;3.35;;;22.10;52.50;;;;;;5159057;28;20045;-67
2020/12/01 12:37:54;;;;;;;8.80;3.97;;;22.10;52.40;;;;;;5170905;28;20046;-67
2020/12/01 12:40:26;;;;;;;8.55;3.83;;;22.10;52.40;;;;;;5166118;28;20599;-67
2020/12/01 12:42:58;;;;;;;7.82;3.00;;;22.10;52.50;;;;;;5161832;28;20421;-66
2020/12/01 12:45:30;;;;;;;7.80;2.80;;;22.10;52.60;;;;;;5154549;28;20414;-67
2020/12/01 12:48:04;;;;;;;6.68;3.35;;;22.10;52.70;;;;;;5158638;28;20057;-67
2020/12/01 12:50:36;;;;;;;16.58;3.75;;;22.10;52.80;;;;;;5155927;28;20049;-68
2020/12/01 12:53:08;;;;;;;9.52;3.72;;;22.10;53.70;;;;;;5147808;28;20049;-64
2020/12/01 12:55:40;;;;;;;11.75;3.80;;;22.20;53.30;;;;;;5158253;28;20481;-67
2020/12/01 12:58:12;;;;;;;10.93;3.88;;;22.20;53.50;;;;;;5162199;28;20069;-67
2020/12/01 13:00:45;;;;;;;14.63;3.30;;;22.20;53.60;;;;;;5158114;28;20050;-67
2020/12/01 13:03:17;;;;;;;7.30;3.60;;;22.20;53.80;;;;;;5165738;28;20060;-65
2020/12/01 13:05:49;;;;;;;9.85;3.38;;;22.30;53.70;;;;;;5168239;28;20057;-67
2020/12/01 13:08:21;;;;;;;13.30;4.43;;;22.30;53.60;;;;;;5161305;28;20061;-67
2020/12/01 13:10:53;;;;;;;12.50;3.90;;;22.30;53.50;;;;;;5161548;28;20073;-68
2020/12/01 13:13:25;;;;;;;13.88;3.78;;;22.40;53.50;;;;;;5160566;28;20100;-67
2020/12/01 13:15:58;;;;;;;18.17;3.90;;;22.40;53.40;;;;;;5168400;28;20424;-65
2020/12/01 13:18:30;;;;;;;12.20;3.67;;;22.40;53.40;;;;;;5167332;28;20069;-67
2020/12/01 13:21:02;;;;;;;9.25;3.50;;;22.40;53.30;;;;;;5169458;28;20489;-67
2020/12/01 13:23:34;;;;;;;7.43;3.53;;;22.40;53.40;;;;;;5170181;28;20073;-67
2020/12/01 13:26:06;;;;;;;5.95;2.85;;;22.50;53.30;;;;;;5156544;28;20058;-67
2020/12/01 13:28:38;;;;;;;12.77;3.42;;;22.50;53.40;;;;;;5166147;28;20042;-65
2020/12/01 13:31:10;;;;;;;6.78;3.55;;;22.50;53.50;;;;;;5162311;28;20065;-66
2020/12/01 13:33:44;;;;;;;11.40;3.85;;;22.50;53.40;;;;;;5159037;28;20054;-67
2020/12/01 13:36:22;;;;;;;8.75;2.80;;;22.50;53.30;;;;;;5151099;28;20057;-62
2020/12/01 13:38:54;;;;;;;8.60;3.58;;;22.60;53.60;;;;;;5161993;28;20675;-63
2020/12/01 13:41:26;;;;;;;12.27;2.72;;;22.60;53.30;;;;;;5154799;28;20397;-64
2020/12/01 13:43:58;;;;;;;6.50;2.88;;;22.60;53.10;;;;;;5165691;28;20058;-64
2020/12/01 13:46:30;;;;;;;8.68;3.00;;;22.60;53.30;;;;;;5164539;28;20042;-66
2020/12/01 13:49:02;;;;;;;4.38;2.88;;;22.70;53.20;;;;;;5162290;28;20046;-65
2020/12/01 13:51:34;;;;;;;15.80;3.97;;;22.70;53.20;;;;;;5161291;28;20038;-65
2020/12/01 13:54:06;;;;;;;14.25;3.17;;;22.70;53.20;;;;;;5167673;28;20050;-65
2020/12/01 13:56:41;;;;;;;7.60;3.05;;;22.70;53.20;;;;;;5163503;28;20227;-63
2020/12/01 13:59:13;;;;;;;6.07;3.22;;;22.70;53.00;;;;;;5155850;28;21463;-62
2020/12/01 14:01:45;;;;;;;11.45;3.58;;;22.70;53.00;;;;;;5162646;28;20046;-66
2020/12/01 14:04:17;;;;;;;6.13;3.05;;;22.70;53.20;;;;;;5175119;28;20042;-66
2020/12/01 14:06:53;;;;;;;8.38;3.22;;;22.70;53.30;;;;;;5175374;28;20045;-69
2020/12/01 14:09:26;;;;;;;10.20;3.30;;;22.70;53.10;;;;;;5149292;28;20050;-68
2020/12/01 14:11:58;;;;;;;7.70;3.17;;;22.70;53.00;;;;;;5146381;28;20057;-67